GIA224 OBBI-WIII
Flight info
| Callsign | GIA224 |
|---|---|
| Flight time | N/A |
| Altitude | 33000 |
| Route | BHR345/30R BHR N685 KINID M444 TULUB B457 EMISA N685 RURAL B415 SIXIV N318 REXOD N563 LEKAP/N0498F350 N563 ISVUR A585 PLB G461 BIDAK |
| Aircraft | B77W/H-SDE1E2E3FGHIJ2J3J4J5M1RWXY/LB1D1 |
Departure
| Time | N/A |
|---|---|
| Airport | Bahrain International Airport (OBBI) |
Arrival
| Time | 2026-05-04 17:47 |
|---|---|
| Airport | Soekarno-Hatta International Airport (WIII) |
| Time | Latitude | Longitude | Altitude | Speed | Heading |
|---|---|---|---|---|---|
| 2026-05-04 17:09 | -1.24841 | 103.06539 | 35936 ft | 483 kts | 135° |
| 2026-05-04 17:10 | -2.21315 | 104.00408 | 35922 ft | 486 kts | 135° |
| 2026-05-04 17:11 | -2.60095 | 104.38186 | 35895 ft | 487 kts | 135° |
| 2026-05-04 17:12 | -3.03390 | 104.83580 | 35895 ft | 487 kts | 128° |
| 2026-05-04 17:13 | -3.21913 | 105.05594 | 35921 ft | 488 kts | 130° |
| 2026-05-04 17:14 | -3.65456 | 105.57267 | 35920 ft | 486 kts | 129° |
| 2026-05-04 17:15 | -3.71993 | 105.65029 | 35487 ft | 492 kts | 129° |
| 2026-05-04 17:15 | -3.76406 | 105.70271 | 33859 ft | 480 kts | 129° |
| 2026-05-04 17:16 | -3.80730 | 105.75410 | 32087 ft | 484 kts | 129° |
| 2026-05-04 17:16 | -3.87291 | 105.83209 | 29572 ft | 488 kts | 129° |
| 2026-05-04 17:17 | -3.89471 | 105.85799 | 28836 ft | 484 kts | 129° |
| 2026-05-04 17:17 | -3.95887 | 105.93428 | 26911 ft | 471 kts | 129° |
| 2026-05-04 17:18 | -3.97988 | 105.95926 | 26295 ft | 467 kts | 129° |
| 2026-05-04 17:18 | -4.02150 | 106.00878 | 25036 ft | 461 kts | 129° |
| 2026-05-04 17:19 | -4.06646 | 106.05314 | 24367 ft | 445 kts | 142° |
| 2026-05-04 17:19 | -4.11789 | 106.08910 | 24198 ft | 459 kts | 144° |
| 2026-05-04 17:20 | -4.17058 | 106.12426 | 23896 ft | 453 kts | 147° |
| 2026-05-04 17:20 | -4.22184 | 106.15453 | 23322 ft | 398 kts | 149° |
| 2026-05-04 17:20 | -4.24558 | 106.16709 | 22977 ft | 374 kts | 151° |
| 2026-05-04 17:21 | -4.29190 | 106.18981 | 21561 ft | 370 kts | 152° |
| 2026-05-04 17:21 | -4.34014 | 106.21330 | 21175 ft | 416 kts | 152° |
| 2026-05-04 17:22 | -4.36682 | 106.22640 | 20909 ft | 433 kts | 152° |
| 2026-05-04 17:22 | -4.39383 | 106.23970 | 20628 ft | 433 kts | 152° |
| 2026-05-04 17:23 | -4.47460 | 106.27966 | 19784 ft | 430 kts | 152° |
| 2026-05-04 17:23 | -4.50138 | 106.29294 | 19507 ft | 429 kts | 152° |
| 2026-05-04 17:23 | -4.55457 | 106.31934 | 18965 ft | 426 kts | 152° |
| 2026-05-04 17:24 | -4.58110 | 106.33251 | 18704 ft | 424 kts | 152° |
| 2026-05-04 17:24 | -4.65985 | 106.37160 | 17844 ft | 418 kts | 152° |
| 2026-05-04 17:25 | -4.68589 | 106.38452 | 17558 ft | 415 kts | 152° |
| 2026-05-04 17:25 | -4.73730 | 106.41005 | 17032 ft | 410 kts | 152° |
| 2026-05-04 17:26 | -4.78806 | 106.43526 | 16509 ft | 405 kts | 152° |
| 2026-05-04 17:26 | -4.86324 | 106.47261 | 15753 ft | 399 kts | 152° |
| 2026-05-04 17:27 | -4.91284 | 106.49725 | 15225 ft | 396 kts | 152° |
| 2026-05-04 17:27 | -4.96212 | 106.52173 | 14735 ft | 394 kts | 152° |
| 2026-05-04 17:28 | -5.01107 | 106.54605 | 14234 ft | 392 kts | 153° |
| 2026-05-04 17:29 | -5.08397 | 106.58229 | 13467 ft | 387 kts | 153° |
| 2026-05-04 17:29 | -5.15556 | 106.61788 | 12703 ft | 381 kts | 152° |
| 2026-05-04 17:30 | -5.22625 | 106.65304 | 11972 ft | 375 kts | 152° |
| 2026-05-04 17:31 | -5.27272 | 106.67616 | 11604 ft | 366 kts | 152° |
| 2026-05-04 17:31 | -5.33618 | 106.69909 | 10739 ft | 290 kts | 161° |
| 2026-05-04 17:32 | -5.37454 | 106.71083 | 10141 ft | 287 kts | 161° |
| 2026-05-04 17:33 | -5.43139 | 106.72840 | 9219 ft | 282 kts | 161° |
| 2026-05-04 17:33 | -5.45015 | 106.73422 | 8910 ft | 281 kts | 161° |
| 2026-05-04 17:34 | -5.50540 | 106.75135 | 8099 ft | 273 kts | 161° |
| 2026-05-04 17:34 | -5.52354 | 106.75698 | 7765 ft | 273 kts | 161° |
| 2026-05-04 17:35 | -5.57691 | 106.77356 | 7101 ft | 265 kts | 160° |
| 2026-05-04 17:35 | -5.61241 | 106.78460 | 6729 ft | 270 kts | 161° |
| 2026-05-04 17:35 | -5.63042 | 106.79020 | 6540 ft | 271 kts | 161° |
| 2026-05-04 17:36 | -5.64839 | 106.79578 | 6348 ft | 270 kts | 160° |
| 2026-05-04 17:36 | -5.66632 | 106.80135 | 6141 ft | 269 kts | 160° |
| 2026-05-04 17:36 | -5.68416 | 106.80689 | 5945 ft | 268 kts | 160° |
| 2026-05-04 17:36 | -5.70191 | 106.81241 | 5746 ft | 266 kts | 160° |
| 2026-05-04 17:37 | -5.71954 | 106.81789 | 5566 ft | 265 kts | 160° |
| 2026-05-04 17:37 | -5.73710 | 106.82334 | 5376 ft | 263 kts | 161° |
| 2026-05-04 17:37 | -5.75451 | 106.82875 | 5192 ft | 261 kts | 160° |
| 2026-05-04 17:37 | -5.77186 | 106.83415 | 5017 ft | 260 kts | 161° |
| 2026-05-04 17:38 | -5.78908 | 106.83950 | 4831 ft | 259 kts | 160° |
| 2026-05-04 17:38 | -5.80626 | 106.84484 | 4644 ft | 258 kts | 160° |
| 2026-05-04 17:38 | -5.82335 | 106.85015 | 4454 ft | 257 kts | 160° |
| 2026-05-04 17:38 | -5.84039 | 106.85545 | 4267 ft | 256 kts | 160° |
| 2026-05-04 17:39 | -5.86856 | 106.86421 | 4002 ft | 252 kts | 160° |
| 2026-05-04 17:39 | -5.88518 | 106.86938 | 3799 ft | 247 kts | 160° |
| 2026-05-04 17:39 | -5.90681 | 106.87610 | 3555 ft | 240 kts | 161° |
| 2026-05-04 17:40 | -5.92256 | 106.88100 | 3398 ft | 233 kts | 161° |
| 2026-05-04 17:40 | -5.93785 | 106.88575 | 3222 ft | 227 kts | 160° |
| 2026-05-04 17:40 | -5.94778 | 106.88880 | 3104 ft | 222 kts | 163° |
| 2026-05-04 17:40 | -5.96266 | 106.88894 | 2930 ft | 214 kts | 199° |
| 2026-05-04 17:41 | -5.97534 | 106.88111 | 2850 ft | 219 kts | 218° |
| 2026-05-04 17:41 | -5.99101 | 106.86823 | 2666 ft | 218 kts | 217° |
| 2026-05-04 17:41 | -5.99889 | 106.86175 | 2561 ft | 216 kts | 218° |
| 2026-05-04 17:41 | -6.01034 | 106.85230 | 2424 ft | 211 kts | 218° |
| 2026-05-04 17:42 | -6.02161 | 106.84301 | 2295 ft | 207 kts | 217° |
| 2026-05-04 17:42 | -6.03277 | 106.83381 | 2203 ft | 207 kts | 217° |
| 2026-05-04 17:42 | -6.04354 | 106.82466 | 2130 ft | 198 kts | 226° |
| 2026-05-04 17:42 | -6.05065 | 106.81301 | 2039 ft | 195 kts | 243° |
| 2026-05-04 17:43 | -6.05650 | 106.80059 | 2015 ft | 197 kts | 245° |
| 2026-05-04 17:43 | -6.06161 | 106.78831 | 2008 ft | 185 kts | 247° |
| 2026-05-04 17:43 | -6.06636 | 106.77642 | 2002 ft | 183 kts | 247° |
| 2026-05-04 17:43 | -6.07108 | 106.76450 | 1983 ft | 185 kts | 247° |
| 2026-05-04 17:44 | -6.07586 | 106.75244 | 1717 ft | 184 kts | 248° |
| 2026-05-04 17:44 | -6.08051 | 106.74072 | 1471 ft | 177 kts | 248° |
| 2026-05-04 17:44 | -6.08492 | 106.72958 | 1268 ft | 165 kts | 248° |
| 2026-05-04 17:44 | -6.08904 | 106.71921 | 1056 ft | 155 kts | 247° |
| 2026-05-04 17:45 | -6.09306 | 106.70911 | 875 ft | 158 kts | 247° |
| 2026-05-04 17:45 | -6.09712 | 106.69888 | 668 ft | 157 kts | 248° |
| 2026-05-04 17:45 | -6.10115 | 106.68872 | 461 ft | 156 kts | 249° |
| 2026-05-04 17:45 | -6.10511 | 106.67876 | 279 ft | 154 kts | 248° |
| 2026-05-04 17:46 | -6.10913 | 106.66878 | 130 ft | 155 kts | 249° |
| 2026-05-04 17:46 | -6.11301 | 106.65884 | 45 ft | 140 kts | 249° |
| 2026-05-04 17:46 | -6.11604 | 106.65130 | 47 ft | 92 kts | 248° |
| 2026-05-04 17:46 | -6.11779 | 106.64692 | 47 ft | 52 kts | 248° |
| 2026-05-04 17:47 | -6.11916 | 106.64405 | 45 ft | 33 kts | 225° |
| 2026-05-04 17:47 | -6.12023 | 106.64375 | 44 ft | 0 kts | 159° |
| 2026-05-04 17:48 | -6.12028 | 106.64377 | 44 ft | 1 kts | 159° |
| 2026-05-04 17:48 | -6.12042 | 106.64383 | 44 ft | 3 kts | 155° |
| 2026-05-04 17:48 | -6.12069 | 106.64420 | 44 ft | 14 kts | 101° |
| 2026-05-04 17:48 | -6.12027 | 106.64557 | 44 ft | 23 kts | 68° |
| 2026-05-04 17:49 | -6.11969 | 106.64701 | 44 ft | 23 kts | 68° |
| 2026-05-04 17:49 | -6.11910 | 106.64849 | 44 ft | 23 kts | 69° |
| 2026-05-04 17:49 | -6.11852 | 106.64997 | 44 ft | 23 kts | 68° |
| 2026-05-04 17:49 | -6.11793 | 106.65144 | 44 ft | 23 kts | 68° |
| 2026-05-04 17:50 | -6.11733 | 106.65291 | 44 ft | 23 kts | 68° |
| 2026-05-04 17:50 | -6.11673 | 106.65439 | 43 ft | 23 kts | 68° |
| 2026-05-04 17:50 | -6.11614 | 106.65586 | 43 ft | 23 kts | 70° |
| 2026-05-04 17:50 | -6.11558 | 106.65734 | 43 ft | 22 kts | 68° |
| 2026-05-04 17:51 | -6.11514 | 106.65853 | 43 ft | 14 kts | 83° |
| 2026-05-04 17:51 | -6.11569 | 106.65927 | 43 ft | 14 kts | 152° |
| 2026-05-04 17:51 | -6.11658 | 106.65966 | 43 ft | 14 kts | 158° |
| 2026-05-04 17:51 | -6.11748 | 106.66002 | 43 ft | 14 kts | 158° |
| 2026-05-04 17:52 | -6.11781 | 106.66081 | 43 ft | 13 kts | 86° |
| 2026-05-04 17:52 | -6.11836 | 106.66143 | 43 ft | 12 kts | 151° |
| 2026-05-04 17:52 | -6.11866 | 106.66156 | 43 ft | 0 kts | 158° |